Time;durP1;ratioP1;P1;durP2;ratioP2;P2;SDS_P1;SDS_P2;PMS_P1;PMS_P2;Temp;Humidity;BMP_temperature;BMP_pressure;BME280_temperature;BME280_humidity;BME280_pressure;Samples;Min_cycle;Max_cycle;Signal;HPM_P1;HPM_P2
2021/07/18 00:01:07;;;;;;;4.93;3.63;;;21.70;99.90;;;;;;5033383;28;20815;-51
2021/07/18 00:03:34;;;;;;;8.30;3.77;;;21.70;99.90;;;;;;5033838;28;20446;-52
2021/07/18 00:06:00;;;;;;;5.50;2.90;;;21.70;99.90;;;;;;5034068;28;20439;-51
2021/07/18 00:08:27;;;;;;;6.73;3.63;;;21.60;99.90;;;;;;5033727;28;20486;-51
2021/07/18 00:10:54;;;;;;;8.53;3.60;;;21.60;99.90;;;;;;5033789;28;20485;-51
2021/07/18 00:13:21;;;;;;;8.30;3.73;;;21.60;99.90;;;;;;5033490;28;20458;-51
2021/07/18 00:15:49;;;;;;;6.87;3.63;;;21.60;99.90;;;;;;5033680;28;20445;-50
2021/07/18 00:18:16;;;;;;;7.47;3.90;;;21.50;99.90;;;;;;5032887;28;20435;-51
2021/07/18 00:20:43;;;;;;;5.20;3.70;;;21.50;99.90;;;;;;5015512;28;20825;-52
2021/07/18 00:23:09;;;;;;;5.00;3.20;;;21.50;99.90;;;;;;5033338;28;20810;-50
2021/07/18 00:25:37;;;;;;;8.77;3.73;;;21.40;99.90;;;;;;5033310;28;20437;-50
2021/07/18 00:28:04;;;;;;;8.60;4.03;;;21.40;99.90;;;;;;5032172;28;20511;-51
2021/07/18 00:30:31;;;;;;;9.40;4.43;;;21.80;99.90;;;;;;5033064;28;20450;-52
2021/07/18 00:33:00;;;;;;;5.03;3.30;;;21.30;99.90;;;;;;5032849;28;20562;-51
2021/07/18 00:35:27;;;;;;;6.53;3.00;;;21.30;99.90;;;;;;5033181;28;20807;-50
2021/07/18 00:37:53;;;;;;;7.63;3.40;;;21.30;99.90;;;;;;5033133;28;20447;-52
2021/07/18 00:40:20;;;;;;;8.40;4.20;;;21.30;99.90;;;;;;5032845;28;20455;-51
2021/07/18 00:42:46;;;;;;;9.97;3.20;;;21.20;99.90;;;;;;5033096;28;20461;-50
2021/07/18 00:45:13;;;;;;;6.43;3.20;;;20.40;99.90;;;;;;5032998;28;20429;-52
2021/07/18 00:47:42;;;;;;;6.33;4.07;;;21.20;99.90;;;;;;5032786;28;21004;-50
2021/07/18 00:50:12;;;;;;;5.23;3.87;;;21.10;99.90;;;;;;5032544;28;20842;-51
2021/07/18 00:52:39;;;;;;;4.70;3.23;;;21.10;99.90;;;;;;5033082;28;20438;-52
2021/07/18 00:55:07;;;;;;;8.40;3.90;;;21.10;99.90;;;;;;5032876;28;20430;-51
2021/07/18 00:57:34;;;;;;;8.30;4.30;;;21.10;99.90;;;;;;5033156;28;20956;-50
2021/07/18 01:00:02;;;;;;;8.50;3.70;;;21.00;99.90;;;;;;5032355;28;20430;-51
2021/07/18 01:02:29;;;;;;;7.87;4.10;;;21.00;99.90;;;;;;5032107;28;20477;-52
2021/07/18 01:04:56;;;;;;;7.60;4.00;;;21.00;99.90;;;;;;5032716;28;20804;-51
2021/07/18 01:07:24;;;;;;;6.30;3.90;;;21.00;99.90;;;;;;5032876;28;20456;-51
2021/07/18 01:09:51;;;;;;;5.80;3.37;;;20.90;99.90;;;;;;5032201;28;20435;-50
2021/07/18 01:12:18;;;;;;;7.47;3.57;;;20.90;99.90;;;;;;5032405;28;20455;-52
2021/07/18 01:14:45;;;;;;;4.50;3.60;;;20.90;99.90;;;;;;5032670;28;20438;-51
2021/07/18 01:17:12;;;;;;;5.30;4.00;;;20.90;99.90;;;;;;5032535;28;20438;-51
2021/07/18 01:19:39;;;;;;;5.07;4.10;;;20.80;99.90;;;;;;5032370;28;20449;-51
2021/07/18 01:22:08;;;;;;;10.10;4.47;;;20.80;99.90;;;;;;5032394;28;20466;-50
2021/07/18 01:24:35;;;;;;;7.97;4.37;;;20.80;99.90;;;;;;5032386;28;20437;-51
2021/07/18 01:27:03;;;;;;;8.37;4.00;;;20.80;99.90;;;;;;5014611;28;20464;-51
2021/07/18 01:29:30;;;;;;;5.47;3.70;;;20.80;99.90;;;;;;5031904;28;20487;-50
2021/07/18 01:31:58;;;;;;;6.27;4.40;;;20.70;99.90;;;;;;5014382;28;20985;-51
2021/07/18 01:34:25;;;;;;;8.03;3.63;;;20.70;99.90;;;;;;5032038;28;20450;-52
2021/07/18 01:36:52;;;;;;;8.50;4.23;;;20.70;99.90;;;;;;5032191;28;20446;-51
2021/07/18 01:39:20;;;;;;;8.93;3.17;;;20.70;99.90;;;;;;5031517;28;20449;-51
2021/07/18 01:41:49;;;;;;;7.30;3.33;;;20.60;99.90;;;;;;5014294;28;20485;-51
2021/07/18 01:44:16;;;;;;;6.63;3.40;;;20.60;99.90;;;;;;5031932;28;20440;-51
2021/07/18 01:46:42;;;;;;;4.13;3.63;;;20.60;99.90;;;;;;5031854;28;20879;-51
2021/07/18 01:49:11;;;;;;;7.90;4.07;;;20.60;99.90;;;;;;5031490;28;20986;-52
2021/07/18 01:51:38;;;;;;;4.87;3.40;;;20.50;99.90;;;;;;5032105;28;20497;-50
2021/07/18 01:54:07;;;;;;;9.63;4.60;;;20.50;99.90;;;;;;5031899;28;20433;-51
2021/07/18 01:56:35;;;;;;;8.27;3.80;;;20.50;99.90;;;;;;5031863;28;20964;-52
2021/07/18 01:59:02;;;;;;;7.03;3.90;;;20.50;99.90;;;;;;5031460;28;20926;-50
2021/07/18 02:01:30;;;;;;;6.57;3.80;;;20.40;99.90;;;;;;5031450;28;20472;-51
2021/07/18 02:03:57;;;;;;;5.20;3.27;;;20.40;99.90;;;;;;5031489;28;20959;-51
2021/07/18 02:06:25;;;;;;;4.40;3.00;;;20.40;99.90;;;;;;5031574;28;20440;-51
2021/07/18 02:08:53;;;;;;;12.00;4.20;;;20.30;99.90;;;;;;5031246;28;20488;-50
2021/07/18 02:11:20;;;;;;;7.30;3.93;;;20.30;99.90;;;;;;5031559;28;20448;-51
2021/07/18 02:13:49;;;;;;;12.07;4.33;;;20.30;99.90;;;;;;5030777;28;20523;-52
2021/07/18 02:16:16;;;;;;;5.60;3.30;;;20.30;99.90;;;;;;5030230;28;20437;-50
2021/07/18 02:18:43;;;;;;;5.37;3.40;;;20.30;99.90;;;;;;5030792;28;20447;-50
2021/07/18 02:21:11;;;;;;;4.53;3.23;;;20.20;99.90;;;;;;5031231;28;20450;-51
2021/07/18 02:23:37;;;;;;;6.80;2.97;;;20.20;99.90;;;;;;5031393;28;20443;-51
2021/07/18 02:26:04;;;;;;;5.40;3.40;;;20.20;99.90;;;;;;5031448;28;20429;-50
2021/07/18 02:28:31;;;;;;;5.40;4.00;;;20.20;99.90;;;;;;5031085;28;21004;-51
2021/07/18 02:31:03;;;;;;;5.80;3.60;;;20.20;99.90;;;;;;5031317;28;20458;-50
2021/07/18 02:33:30;;;;;;;8.60;4.33;;;20.10;99.90;;;;;;5031475;28;20437;-50
2021/07/18 02:35:58;;;;;;;8.30;3.60;;;20.10;99.90;;;;;;5031496;28;20428;-52
2021/07/18 02:38:25;;;;;;;8.33;3.47;;;20.10;99.90;;;;;;5030987;28;20432;-50
2021/07/18 02:40:52;;;;;;;6.63;3.27;;;19.60;99.90;;;;;;5031516;28;20484;-53
2021/07/18 02:43:18;;;;;;;5.97;3.40;;;20.10;99.90;;;;;;5031213;28;20777;-50
2021/07/18 02:45:45;;;;;;;7.73;3.60;;;20.00;99.90;;;;;;5031766;28;20444;-49
2021/07/18 02:48:13;;;;;;;7.83;3.60;;;20.00;99.90;;;;;;5031123;28;20499;-50
2021/07/18 02:50:39;;;;;;;6.83;3.63;;;20.00;99.90;;;;;;5031481;28;20969;-50
2021/07/18 02:53:06;;;;;;;7.57;4.30;;;20.00;99.90;;;;;;5035065;28;20439;-50
2021/07/18 02:55:33;;;;;;;6.83;4.10;;;20.00;99.90;;;;;;5035208;28;20437;-50
2021/07/18 02:57:59;;;;;;;4.97;3.60;;;19.90;99.90;;;;;;5034876;28;20717;-51
2021/07/18 03:00:27;;;;;;;9.63;4.30;;;20.00;99.90;;;;;;5034672;28;20433;-50
2021/07/18 03:02:54;;;;;;;4.57;3.80;;;19.90;99.90;;;;;;5034933;28;20437;-49
2021/07/18 03:05:22;;;;;;;5.27;4.00;;;19.90;99.90;;;;;;5034963;28;20522;-50
2021/07/18 03:07:49;;;;;;;8.57;4.27;;;19.90;99.90;;;;;;5034862;28;20452;-50
2021/07/18 03:10:18;;;;;;;10.03;4.97;;;19.80;99.90;;;;;;5034276;28;20484;-51
2021/07/18 03:12:45;;;;;;;10.10;4.57;;;19.80;99.90;;;;;;5016930;28;20460;-50
2021/07/18 03:15:14;;;;;;;6.20;4.27;;;19.80;99.90;;;;;;5034314;28;20439;-51
2021/07/18 03:17:41;;;;;;;6.07;3.93;;;19.70;99.90;;;;;;5034590;28;20433;-51
2021/07/18 03:20:11;;;;;;;5.40;3.90;;;19.70;99.90;;;;;;5034290;28;20427;-49
2021/07/18 03:22:40;;;;;;;9.30;4.37;;;19.70;99.90;;;;;;5034727;28;20758;-49
2021/07/18 03:25:08;;;;;;;5.43;3.60;;;19.70;99.90;;;;;;5016837;28;20501;-50
2021/07/18 03:27:35;;;;;;;8.80;4.40;;;19.70;99.90;;;;;;5034345;28;20752;-51
2021/07/18 03:30:01;;;;;;;10.47;4.70;;;19.70;99.90;;;;;;5033972;28;20483;-50
2021/07/18 03:32:28;;;;;;;8.13;4.30;;;19.70;99.90;;;;;;5034216;28;20560;-53
2021/07/18 03:34:55;;;;;;;5.33;4.33;;;19.70;99.90;;;;;;5034265;28;20931;-50
2021/07/18 03:37:21;;;;;;;6.40;4.33;;;19.70;99.90;;;;;;5034409;28;20467;-49
2021/07/18 03:39:49;;;;;;;7.13;4.10;;;19.70;99.90;;;;;;5033961;28;20435;-49
2021/07/18 03:42:16;;;;;;;8.90;3.53;;;19.60;99.90;;;;;;5034103;28;20539;-50
2021/07/18 03:44:43;;;;;;;8.60;4.50;;;19.60;99.90;;;;;;5034218;28;20467;-51
2021/07/18 03:47:09;;;;;;;4.83;3.80;;;19.60;99.90;;;;;;5034107;28;20428;-49
2021/07/18 03:49:36;;;;;;;5.43;4.53;;;19.60;99.90;;;;;;5033724;28;20479;-49
2021/07/18 03:52:03;;;;;;;5.40;4.13;;;19.70;99.90;;;;;;5033973;28;20470;-50
2021/07/18 03:54:30;;;;;;;7.90;3.87;;;19.70;99.90;;;;;;5033891;28;20438;-50
2021/07/18 03:56:58;;;;;;;6.07;3.50;;;19.70;99.90;;;;;;5033849;28;20940;-50
2021/07/18 03:59:24;;;;;;;6.90;3.87;;;19.70;99.90;;;;;;5033501;28;20447;-49
2021/07/18 04:01:51;;;;;;;5.63;3.90;;;19.70;99.90;;;;;;5033174;28;20466;-51
2021/07/18 04:04:18;;;;;;;7.13;3.70;;;19.70;99.90;;;;;;5033045;28;20482;-49
2021/07/18 04:06:44;;;;;;;7.83;4.57;;;19.80;99.90;;;;;;5033793;28;20940;-49
2021/07/18 04:09:11;;;;;;;5.73;3.70;;;19.90;99.90;;;;;;5033181;28;20468;-51
2021/07/18 04:11:38;;;;;;;7.50;4.07;;;19.90;99.90;;;;;;5033386;28;20450;-49
2021/07/18 04:14:06;;;;;;;5.50;3.77;;;20.00;99.90;;;;;;5033697;28;20439;-50
2021/07/18 04:16:32;;;;;;;4.93;3.30;;;20.10;99.90;;;;;;5033594;28;20439;-49
2021/07/18 04:18:59;;;;;;;6.73;3.50;;;20.20;99.90;;;;;;5033275;28;20430;-50
2021/07/18 04:21:26;;;;;;;9.73;4.00;;;20.30;99.90;;;;;;5033371;28;20974;-51
2021/07/18 04:23:52;;;;;;;6.63;3.60;;;20.30;99.90;;;;;;5015512;28;20992;-49
2021/07/18 04:26:19;;;;;;;7.70;3.90;;;20.40;99.90;;;;;;5015555;28;20811;-49
2021/07/18 04:28:46;;;;;;;7.67;3.37;;;20.50;99.90;;;;;;5033015;28;20476;-51
2021/07/18 04:31:14;;;;;;;7.77;3.27;;;20.60;99.90;;;;;;5033274;28;20827;-50
2021/07/18 04:33:43;;;;;;;4.40;2.93;;;20.70;99.90;;;;;;5033223;28;20446;-50
2021/07/18 04:36:10;;;;;;;6.97;3.60;;;20.80;99.90;;;;;;5033321;28;20490;-50
2021/07/18 04:38:36;;;;;;;7.27;3.63;;;20.80;99.90;;;;;;5033197;28;20444;-50
2021/07/18 04:41:03;;;;;;;9.60;3.50;;;20.90;99.90;;;;;;5033068;28;20472;-50
2021/07/18 04:43:30;;;;;;;6.57;3.23;;;21.00;99.90;;;;;;5033170;28;20448;-49
2021/07/18 04:45:57;;;;;;;6.23;3.63;;;21.10;99.90;;;;;;5032968;28;20433;-49
2021/07/18 04:48:25;;;;;;;9.90;2.50;;;21.10;99.90;;;;;;5032818;28;20824;-49
2021/07/18 04:50:51;;;;;;;7.23;3.80;;;21.20;99.90;;;;;;5032910;28;20994;-50
2021/07/18 04:53:18;;;;;;;7.20;3.33;;;21.30;99.90;;;;;;5032823;28;20453;-50
2021/07/18 04:55:44;;;;;;;7.63;3.10;;;21.30;99.90;;;;;;5014999;28;20478;-51
2021/07/18 04:58:11;;;;;;;5.70;3.17;;;21.50;99.90;;;;;;5032720;28;20437;-50
2021/07/18 05:00:38;;;;;;;5.90;3.07;;;21.50;99.90;;;;;;5058210;22;20463;-54
2021/07/18 05:03:05;;;;;;;6.30;2.87;;;21.60;99.90;;;;;;5050092;28;20902;-55
2021/07/18 05:05:33;;;;;;;7.20;3.97;;;21.60;99.90;;;;;;5050974;28;20456;-54
2021/07/18 05:08:00;;;;;;;8.80;3.77;;;21.60;99.90;;;;;;5050871;28;20456;-54
2021/07/18 05:10:29;;;;;;;4.83;2.67;;;21.70;99.90;;;;;;5050792;28;20696;-54
2021/07/18 05:12:58;;;;;;;5.07;3.07;;;21.70;99.90;;;;;;5051009;28;20549;-54
2021/07/18 05:15:27;;;;;;;8.63;4.00;;;21.70;99.90;;;;;;5050447;28;20453;-54
2021/07/18 05:18:22;;;;;;;6.03;3.50;;;21.80;99.90;;;;;;5050995;28;20464;-54
2021/07/18 05:20:50;;;;;;;6.33;3.73;;;21.90;99.90;;;;;;5050907;28;20512;-54
2021/07/18 05:23:16;;;;;;;4.93;3.47;;;21.70;99.90;;;;;;5050872;28;20430;-54
2021/07/18 05:25:43;;;;;;;4.67;3.20;;;22.00;99.90;;;;;;5051065;28;20442;-54
2021/07/18 05:28:10;;;;;;;8.30;3.20;;;22.00;99.90;;;;;;5050628;28;20429;-54
2021/07/18 05:30:36;;;;;;;4.47;2.90;;;22.20;99.90;;;;;;5050708;28;20466;-54
2021/07/18 05:33:03;;;;;;;4.83;2.90;;;22.20;99.90;;;;;;5051006;28;20539;-55
2021/07/18 05:35:30;;;;;;;8.07;2.80;;;22.20;99.90;;;;;;5050723;28;20926;-54
2021/07/18 05:37:58;;;;;;;6.37;3.87;;;22.30;99.90;;;;;;5050902;28;20432;-54
2021/07/18 05:40:24;;;;;;;5.90;3.10;;;22.30;99.90;;;;;;5050712;28;20435;-54
2021/07/18 05:42:51;;;;;;;3.43;2.20;;;22.40;99.90;;;;;;5050347;28;20476;-55
2021/07/18 05:45:17;;;;;;;8.10;3.50;;;22.60;99.90;;;;;;5050697;28;20438;-54
2021/07/18 05:47:44;;;;;;;3.73;3.10;;;22.60;99.90;;;;;;5050616;28;20923;-54
2021/07/18 05:50:12;;;;;;;8.93;2.93;;;22.60;99.90;;;;;;5050286;28;20475;-55
2021/07/18 05:52:39;;;;;;;3.70;3.07;;;22.70;99.90;;;;;;5050127;28;20544;-54
2021/07/18 05:55:09;;;;;;;5.03;3.10;;;22.80;99.90;;;;;;5049870;28;20435;-54
2021/07/18 05:57:37;;;;;;;6.63;2.73;;;22.90;99.90;;;;;;5049915;28;20436;-55
2021/07/18 06:00:06;;;;;;;4.07;2.70;;;23.00;99.90;;;;;;5049590;28;20435;-54
2021/07/18 06:02:37;;;;;;;7.67;2.73;;;23.00;99.90;;;;;;5032508;28;20781;-55
2021/07/18 06:05:04;;;;;;;9.27;4.20;;;22.90;99.90;;;;;;5050080;28;20446;-55
2021/07/18 06:07:30;;;;;;;5.00;3.10;;;22.90;99.90;;;;;;5049973;28;20450;-55
2021/07/18 06:09:57;;;;;;;4.77;2.53;;;22.90;99.90;;;;;;5049541;28;20817;-55
2021/07/18 06:12:25;;;;;;;10.73;2.90;;;22.90;99.90;;;;;;5049797;28;20455;-54
2021/07/18 06:14:51;;;;;;;5.60;3.20;;;23.00;99.90;;;;;;5049844;28;20449;-55
2021/07/18 06:17:18;;;;;;;3.17;2.00;;;22.90;99.90;;;;;;5049748;28;20438;-54
2021/07/18 06:19:45;;;;;;;6.13;2.73;;;22.90;99.90;;;;;;5049161;28;20433;-54
2021/07/18 06:22:12;;;;;;;9.10;2.40;;;22.90;99.90;;;;;;5049737;28;20459;-54
2021/07/18 06:24:38;;;;;;;5.37;2.50;;;23.00;99.90;;;;;;5049813;28;20947;-54
2021/07/18 06:27:07;;;;;;;4.20;2.83;;;23.10;99.90;;;;;;5052627;28;20438;-55
2021/07/18 06:29:35;;;;;;;5.20;2.60;;;23.20;99.90;;;;;;5053784;28;20548;-54
2021/07/18 06:32:02;;;;;;;4.93;2.40;;;23.30;99.90;;;;;;5053962;28;20458;-55
2021/07/18 06:34:29;;;;;;;7.27;3.13;;;23.30;99.90;;;;;;5053617;28;20876;-54
2021/07/18 06:36:55;;;;;;;5.93;3.17;;;23.30;99.90;;;;;;5053522;28;20424;-55
2021/07/18 06:39:22;;;;;;;6.63;2.57;;;23.20;99.90;;;;;;5053299;28;20433;-55
2021/07/18 06:41:48;;;;;;;6.40;2.60;;;23.40;99.90;;;;;;5053575;28;20460;-54
2021/07/18 06:44:15;;;;;;;3.13;2.47;;;23.40;99.90;;;;;;5053682;28;20437;-56
2021/07/18 06:46:43;;;;;;;3.50;2.23;;;23.40;99.90;;;;;;5053735;28;20781;-56
2021/07/18 06:49:10;;;;;;;5.23;2.50;;;23.50;99.90;;;;;;5053504;28;20441;-56
2021/07/18 06:51:36;;;;;;;5.20;2.20;;;23.50;99.90;;;;;;5053868;28;20456;-55
2021/07/18 06:54:04;;;;;;;4.30;2.27;;;23.40;99.90;;;;;;5053587;28;20521;-56
2021/07/18 06:56:30;;;;;;;2.87;2.57;;;23.40;99.90;;;;;;5053697;28;20964;-56
2021/07/18 06:58:57;;;;;;;3.27;2.47;;;23.40;99.90;;;;;;5053673;28;20464;-55
2021/07/18 07:01:24;;;;;;;2.83;2.00;;;23.40;99.90;;;;;;5053416;28;20469;-56
2021/07/18 07:03:52;;;;;;;3.43;2.40;;;23.50;99.90;;;;;;5053646;28;20438;-56
2021/07/18 07:06:18;;;;;;;3.90;2.53;;;23.50;99.90;;;;;;5053303;28;20434;-56
2021/07/18 07:08:45;;;;;;;3.80;2.30;;;23.60;99.90;;;;;;5053119;28;20452;-55
2021/07/18 07:11:12;;;;;;;5.37;2.57;;;23.50;99.90;;;;;;5053720;28;20484;-56
2021/07/18 07:13:38;;;;;;;4.53;2.77;;;23.50;99.90;;;;;;5053413;28;20450;-56
2021/07/18 07:16:06;;;;;;;7.20;2.70;;;23.50;99.90;;;;;;5053225;28;20441;-54
2021/07/18 07:18:33;;;;;;;3.50;2.50;;;23.50;99.90;;;;;;5052966;28;20460;-56
2021/07/18 07:21:01;;;;;;;4.23;2.60;;;23.60;99.90;;;;;;5053163;28;20458;-53
2021/07/18 07:23:27;;;;;;;5.27;2.80;;;23.60;99.90;;;;;;5053212;28;20960;-55
2021/07/18 07:25:54;;;;;;;9.03;2.83;;;23.60;99.90;;;;;;5035186;28;20483;-54
2021/07/18 07:28:21;;;;;;;5.00;2.50;;;23.60;99.90;;;;;;5052870;28;20441;-56
2021/07/18 07:30:47;;;;;;;3.17;2.47;;;23.60;99.90;;;;;;5052917;28;20931;-54
2021/07/18 07:33:15;;;;;;;3.97;2.37;;;23.60;99.90;;;;;;5052825;28;20442;-55
2021/07/18 07:35:41;;;;;;;3.70;2.50;;;23.60;99.90;;;;;;5052517;28;20592;-55
2021/07/18 07:38:10;;;;;;;5.17;2.53;;;23.70;99.90;;;;;;5052157;28;20445;-55
2021/07/18 07:40:37;;;;;;;2.70;2.10;;;23.80;99.90;;;;;;5052850;28;20446;-55
2021/07/18 07:43:06;;;;;;;3.77;2.07;;;23.80;99.90;;;;;;5052682;28;20816;-55
2021/07/18 07:45:33;;;;;;;4.07;2.53;;;23.90;99.90;;;;;;5052625;28;20563;-56
2021/07/18 07:47:59;;;;;;;4.60;2.97;;;23.90;99.90;;;;;;5052516;28;20437;-53
2021/07/18 07:50:26;;;;;;;3.57;2.80;;;23.80;99.90;;;;;;5052298;28;20512;-54
2021/07/18 07:52:53;;;;;;;2.80;2.50;;;24.00;99.90;;;;;;5034427;28;20480;-55
2021/07/18 07:55:20;;;;;;;4.00;2.37;;;23.80;99.90;;;;;;5052416;28;20563;-55
2021/07/18 07:57:47;;;;;;;4.97;2.83;;;24.00;99.90;;;;;;5052646;28;20429;-55
2021/07/18 08:00:17;;;;;;;5.57;2.33;;;24.00;99.90;;;;;;5052346;28;20528;-55
2021/07/18 08:02:48;;;;;;;7.23;2.23;;;23.90;99.90;;;;;;5052277;28;20493;-54
2021/07/18 08:05:15;;;;;;;2.90;2.47;;;23.90;99.90;;;;;;5052372;28;20445;-54
2021/07/18 08:07:42;;;;;;;3.43;2.30;;;23.80;99.90;;;;;;5052349;28;20440;-56
2021/07/18 08:10:10;;;;;;;5.13;3.00;;;23.70;99.90;;;;;;5051870;28;20479;-55
2021/07/18 08:12:40;;;;;;;4.33;2.83;;;23.80;99.90;;;;;;5051993;28;20461;-56
2021/07/18 08:15:08;;;;;;;5.60;2.67;;;23.80;99.90;;;;;;5051882;28;20443;-56
2021/07/18 08:17:36;;;;;;;4.00;2.13;;;23.80;99.90;;;;;;5051983;28;20433;-55
2021/07/18 08:20:04;;;;;;;4.13;2.40;;;23.80;99.90;;;;;;5051452;28;20837;-56
2021/07/18 08:22:31;;;;;;;5.30;3.07;;;23.80;99.90;;;;;;5051219;28;20460;-56
2021/07/18 08:24:57;;;;;;;3.63;2.07;;;23.80;99.90;;;;;;5051976;28;20810;-56
2021/07/18 08:27:24;;;;;;;5.40;2.93;;;23.90;99.90;;;;;;5051853;28;20475;-55
2021/07/18 08:29:52;;;;;;;3.47;2.63;;;23.80;99.90;;;;;;5051261;28;20434;-55
2021/07/18 08:32:18;;;;;;;5.30;2.40;;;23.80;99.90;;;;;;5051913;28;20834;-57
2021/07/18 08:34:45;;;;;;;3.40;2.10;;;23.80;99.90;;;;;;5051765;28;20774;-56
2021/07/18 08:37:12;;;;;;;4.03;2.70;;;23.80;99.90;;;;;;5052001;28;20434;-56
2021/07/18 08:39:38;;;;;;;4.30;2.37;;;23.90;99.90;;;;;;5051599;28;20445;-56
2021/07/18 08:42:07;;;;;;;4.20;3.00;;;23.90;99.90;;;;;;5051268;28;20505;-54
2021/07/18 08:44:35;;;;;;;3.30;2.50;;;23.90;99.60;;;;;;5051132;28;20777;-56
2021/07/18 08:47:05;;;;;;;6.60;3.43;;;24.00;99.70;;;;;;5051528;28;20430;-55
2021/07/18 08:49:32;;;;;;;3.90;2.13;;;24.00;99.50;;;;;;5050256;28;20435;-55
2021/07/18 08:52:00;;;;;;;3.77;2.73;;;24.00;99.60;;;;;;5051154;28;20848;-57
2021/07/18 08:54:27;;;;;;;6.13;2.90;;;24.10;99.50;;;;;;5051580;28;20875;-54
2021/07/18 08:56:56;;;;;;;5.10;2.57;;;24.20;99.50;;;;;;5050843;28;20498;-56
2021/07/18 08:59:22;;;;;;;8.10;2.60;;;24.20;99.40;;;;;;5050791;28;20532;-56
2021/07/18 09:01:49;;;;;;;4.97;3.10;;;24.30;99.40;;;;;;5051405;28;20476;-56
2021/07/18 09:04:17;;;;;;;4.63;2.40;;;24.30;99.40;;;;;;5051193;28;20432;-55
2021/07/18 09:06:46;;;;;;;6.30;2.40;;;24.30;99.40;;;;;;5050995;28;20827;-55
2021/07/18 09:09:14;;;;;;;4.33;2.70;;;24.40;99.30;;;;;;5050619;28;20426;-56
2021/07/18 09:11:42;;;;;;;4.30;2.60;;;24.50;99.20;;;;;;5032703;28;20835;-55
2021/07/18 09:14:11;;;;;;;4.83;2.40;;;24.50;99.30;;;;;;5051151;28;20477;-56
2021/07/18 09:16:39;;;;;;;3.70;2.67;;;24.50;99.20;;;;;;5051442;28;20758;-56
2021/07/18 09:19:25;;;;;;;4.40;2.40;;;24.50;99.20;;;;;;5050576;28;20510;-56
2021/07/18 09:22:10;;;;;;;5.00;2.97;;;24.60;99.20;;;;;;5050255;28;20511;-55
2021/07/18 09:24:38;;;;;;;5.20;2.47;;;24.60;99.10;;;;;;5050616;28;20973;-55
2021/07/18 09:27:12;;;;;;;4.80;2.70;;;24.50;99.20;;;;;;5050993;28;20442;-56
2021/07/18 09:29:40;;;;;;;6.20;3.00;;;24.50;99.10;;;;;;5050498;28;20485;-56
2021/07/18 09:32:09;;;;;;;4.10;2.50;;;24.50;99.10;;;;;;5050466;28;20888;-55
2021/07/18 09:34:39;;;;;;;3.83;2.57;;;24.60;98.90;;;;;;5050239;28;20446;-55
2021/07/18 09:37:11;;;;;;;7.60;3.47;;;24.50;98.80;;;;;;5050723;28;20434;-55
2021/07/18 09:39:38;;;;;;;3.83;2.47;;;24.50;98.80;;;;;;5050546;28;20453;-56
2021/07/18 09:42:05;;;;;;;3.40;2.50;;;24.60;98.80;;;;;;5050245;28;20459;-56
2021/07/18 09:44:41;;;;;;;4.00;2.40;;;24.70;98.60;;;;;;5050110;28;20567;-56
2021/07/18 09:47:09;;;;;;;4.30;2.43;;;24.70;98.30;;;;;;5050457;28;20962;-56
2021/07/18 09:49:38;;;;;;;5.03;2.03;;;24.70;98.10;;;;;;5050415;28;20732;-56
2021/07/18 09:52:16;;;;;;;3.33;2.33;;;24.70;97.70;;;;;;5050281;28;20486;-55
2021/07/18 09:54:43;;;;;;;3.50;2.23;;;24.80;97.60;;;;;;5050205;28;20943;-55
2021/07/18 09:57:10;;;;;;;5.37;2.40;;;24.80;97.90;;;;;;5032387;28;20451;-54
2021/07/18 09:59:37;;;;;;;3.87;2.30;;;24.80;97.90;;;;;;5049822;28;20511;-54
2021/07/18 10:02:04;;;;;;;4.00;2.30;;;24.90;97.90;;;;;;5050231;28;20474;-56
2021/07/18 10:04:40;;;;;;;5.47;1.60;;;24.90;98.00;;;;;;5050683;28;20703;-55
2021/07/18 10:07:08;;;;;;;4.80;2.47;;;24.90;97.40;;;;;;5050392;28;20439;-55
2021/07/18 10:09:35;;;;;;;3.13;2.13;;;24.90;97.50;;;;;;5049858;28;20760;-55
2021/07/18 10:12:02;;;;;;;3.00;2.17;;;24.90;97.60;;;;;;5050412;28;20487;-56
2021/07/18 10:14:28;;;;;;;4.10;2.33;;;24.90;97.60;;;;;;5050205;28;20434;-55
2021/07/18 10:16:55;;;;;;;3.40;2.37;;;24.90;97.70;;;;;;5050065;28;20438;-54
2021/07/18 10:19:22;;;;;;;3.03;2.10;;;24.90;97.60;;;;;;5049690;28;20480;-55
2021/07/18 10:21:51;;;;;;;5.43;2.00;;;25.00;97.40;;;;;;5050477;28;20451;-54
2021/07/18 10:24:19;;;;;;;7.63;2.23;;;25.10;97.40;;;;;;5050191;28;20812;-55
2021/07/18 10:26:46;;;;;;;10.97;3.03;;;25.20;97.30;;;;;;5049581;28;20885;-55
2021/07/18 10:29:13;;;;;;;3.47;1.97;;;25.20;97.20;;;;;;5049984;28;20460;-56
2021/07/18 10:31:43;;;;;;;5.80;2.70;;;25.30;97.10;;;;;;5049790;28;20496;-55
2021/07/18 10:34:11;;;;;;;3.40;2.13;;;25.40;97.10;;;;;;5049831;28;21008;-55
2021/07/18 10:36:38;;;;;;;4.13;2.57;;;25.50;96.90;;;;;;5049878;28;20441;-55
2021/07/18 10:39:26;;;;;;;3.73;2.00;;;25.60;96.60;;;;;;5049487;28;20435;-56
2021/07/18 10:41:53;;;;;;;4.33;2.00;;;25.70;96.50;;;;;;5049256;28;20453;-55
2021/07/18 10:44:20;;;;;;;3.00;2.17;;;25.70;96.50;;;;;;5049724;28;20766;-56
2021/07/18 10:46:55;;;;;;;3.50;2.30;;;25.70;96.30;;;;;;5049655;28;20438;-56
2021/07/18 10:49:57;;;;;;;3.03;2.13;;;25.80;96.00;;;;;;5049142;28;20426;-56
2021/07/18 10:52:29;;;;;;;4.17;2.30;;;25.80;96.10;;;;;;5049590;28;21005;-56
2021/07/18 10:54:57;;;;;;;4.77;2.20;;;25.90;95.80;;;;;;5049917;28;20534;-55
2021/07/18 10:57:31;;;;;;;5.67;3.07;;;25.90;95.90;;;;;;5049040;28;20512;-56
2021/07/18 11:00:19;;;;;;;3.27;2.13;;;26.00;96.00;;;;;;5048630;28;20439;-55
2021/07/18 11:02:46;;;;;;;5.03;2.20;;;26.10;95.60;;;;;;5074780;22;20498;-51
2021/07/18 11:05:17;;;;;;;5.13;2.47;;;26.10;95.60;;;;;;5050311;28;20433;-53
2021/07/18 11:07:54;;;;;;;2.13;1.83;;;26.20;95.40;;;;;;5050555;28;20815;-51
2021/07/18 11:10:24;;;;;;;4.63;2.07;;;26.20;95.10;;;;;;5050225;28;20842;-51
2021/07/18 11:13:00;;;;;;;5.83;3.60;;;26.20;94.90;;;;;;5052674;28;20482;-52
2021/07/18 11:15:36;;;;;;;4.53;2.30;;;26.10;94.60;;;;;;5035904;28;20461;-53
2021/07/18 11:18:05;;;;;;;3.20;2.20;;;26.10;94.80;;;;;;5036212;28;20445;-52
2021/07/18 11:21:07;;;;;;;5.90;2.60;;;26.20;94.80;;;;;;5054151;28;20426;-53
2021/07/18 11:23:37;;;;;;;3.23;2.07;;;26.20;94.60;;;;;;5054461;28;20430;-52
2021/07/18 11:26:10;;;;;;;2.60;2.03;;;26.20;94.60;;;;;;5054344;28;20436;-53
2021/07/18 11:28:52;;;;;;;2.90;1.77;;;26.20;94.70;;;;;;5053262;28;20427;-52
2021/07/18 11:31:42;;;;;;;5.23;2.10;;;26.10;94.70;;;;;;5053837;28;20541;-53
2021/07/18 11:34:11;;;;;;;5.70;2.63;;;26.10;94.70;;;;;;5053794;28;20923;-52
2021/07/18 11:36:55;;;;;;;3.50;2.67;;;26.10;95.00;;;;;;5054135;28;20426;-52
2021/07/18 11:39:26;;;;;;;3.00;2.30;;;26.20;94.90;;;;;;5053525;28;20430;-53
2021/07/18 11:41:55;;;;;;;6.70;2.53;;;26.20;94.80;;;;;;5053661;28;20458;-52
2021/07/18 11:44:31;;;;;;;3.27;2.00;;;26.20;95.10;;;;;;5053662;28;20457;-53
2021/07/18 11:47:04;;;;;;;2.50;2.03;;;26.30;94.20;;;;;;5053681;28;20438;-53
2021/07/18 11:49:34;;;;;;;4.83;2.20;;;26.30;94.10;;;;;;5053570;28;20440;-53
2021/07/18 11:52:02;;;;;;;3.03;1.57;;;26.40;94.10;;;;;;5053314;28;20486;-53
2021/07/18 11:54:28;;;;;;;3.13;2.00;;;26.50;93.90;;;;;;5053128;28;20431;-53
2021/07/18 11:56:57;;;;;;;4.90;2.20;;;26.60;93.50;;;;;;5053784;28;20907;-53
2021/07/18 11:59:25;;;;;;;3.17;1.50;;;26.70;93.30;;;;;;5053107;28;20439;-53
2021/07/18 12:01:54;;;;;;;2.63;1.70;;;26.70;93.40;;;;;;5053146;28;20986;-53
2021/07/18 12:04:23;;;;;;;5.67;1.90;;;26.80;93.40;;;;;;5053513;28;20443;-52
2021/07/18 12:07:01;;;;;;;4.20;2.80;;;26.90;93.10;;;;;;5052972;28;20500;-53
2021/07/18 12:09:29;;;;;;;3.30;2.07;;;27.00;92.30;;;;;;5052859;28;20792;-52
2021/07/18 12:11:59;;;;;;;4.73;1.97;;;27.00;92.30;;;;;;5052624;28;21000;-52
2021/07/18 12:14:27;;;;;;;4.20;1.80;;;27.10;92.20;;;;;;5053484;28;20526;-53
2021/07/18 12:16:56;;;;;;;4.13;1.50;;;26.90;92.20;;;;;;5053023;28;20483;-52
2021/07/18 12:19:25;;;;;;;4.07;2.20;;;26.80;92.30;;;;;;5052630;28;20434;-52
2021/07/18 12:21:52;;;;;;;2.70;1.50;;;26.70;92.20;;;;;;5052470;28;20572;-52
2021/07/18 12:24:23;;;;;;;2.97;1.80;;;26.60;91.80;;;;;;5052004;28;20460;-53
2021/07/18 12:27:05;;;;;;;4.20;1.90;;;26.60;91.80;;;;;;5052970;28;20435;-53
2021/07/18 12:29:34;;;;;;;4.23;2.30;;;26.50;92.20;;;;;;5052651;28;20441;-52
2021/07/18 12:32:02;;;;;;;3.40;2.00;;;26.40;92.60;;;;;;5052699;28;20482;-52
2021/07/18 12:34:31;;;;;;;5.10;2.10;;;26.40;92.60;;;;;;5052622;28;20526;-53
2021/07/18 12:37:03;;;;;;;3.67;2.20;;;26.40;92.80;;;;;;5052928;28;20427;-52
2021/07/18 12:39:31;;;;;;;4.43;1.80;;;26.40;92.70;;;;;;5052336;28;20502;-53
2021/07/18 12:42:01;;;;;;;5.47;1.77;;;26.50;92.50;;;;;;5052704;28;20457;-52
2021/07/18 12:44:33;;;;;;;4.20;1.60;;;26.50;91.90;;;;;;5052702;28;20437;-53
2021/07/18 12:47:35;;;;;;;3.33;1.80;;;26.50;91.80;;;;;;5052470;28;20439;-54
2021/07/18 12:50:20;;;;;;;3.80;1.90;;;26.60;91.60;;;;;;5052377;28;20448;-54
2021/07/18 12:53:03;;;;;;;3.30;1.57;;;26.70;91.90;;;;;;5052516;28;20504;-53